Time;durP1;ratioP1;P1;durP2;ratioP2;P2;SDS_P1;SDS_P2;PMS_P1;PMS_P2;Temp;Humidity;BMP_temperature;BMP_pressure;BME280_temperature;BME280_humidity;BME280_pressure;Samples;Min_cycle;Max_cycle;Signal;HPM_P1;HPM_P2
2022/08/27 00:00:45;;;;;;;6.65;2.25;;;21.80;99.90;;;;;;5119822;28;20087;-73
2022/08/27 00:03:11;;;;;;;10.30;3.08;;;21.80;99.90;;;;;;5120598;28;20027;-73
2022/08/27 00:05:45;;;;;;;4.93;2.05;;;21.70;99.90;;;;;;5111236;28;20119;-73
2022/08/27 00:08:12;;;;;;;4.82;2.40;;;21.70;99.90;;;;;;5119283;28;20110;-73
2022/08/27 00:10:39;;;;;;;5.43;2.25;;;21.60;99.90;;;;;;5108631;28;20106;-73
2022/08/27 00:13:05;;;;;;;4.47;2.28;;;21.60;99.90;;;;;;5119397;28;20019;-73
2022/08/27 00:15:32;;;;;;;5.03;2.75;;;21.60;99.90;;;;;;5106508;28;20039;-73
2022/08/27 00:17:58;;;;;;;3.35;2.13;;;21.60;99.90;;;;;;5119207;28;20028;-72
2022/08/27 00:20:25;;;;;;;4.60;2.58;;;21.60;99.90;;;;;;5119350;28;20019;-73
2022/08/27 00:22:51;;;;;;;2.67;1.88;;;21.50;99.90;;;;;;5120861;28;20031;-73
2022/08/27 00:25:18;;;;;;;5.28;2.65;;;21.50;99.90;;;;;;5111821;28;20027;-74
2022/08/27 00:27:44;;;;;;;11.60;2.85;;;21.40;99.90;;;;;;5120362;28;20428;-73
2022/08/27 00:30:13;;;;;;;4.50;2.40;;;21.40;99.90;;;;;;5118819;28;20031;-73
2022/08/27 00:32:39;;;;;;;4.40;2.00;;;21.40;99.90;;;;;;5120344;28;20020;-73
2022/08/27 00:35:09;;;;;;;7.22;2.22;;;21.40;99.90;;;;;;5120244;28;20024;-73
2022/08/27 00:37:36;;;;;;;3.75;2.20;;;21.30;99.90;;;;;;5111486;28;20048;-74
2022/08/27 00:40:06;;;;;;;4.32;2.22;;;21.30;99.90;;;;;;5118259;28;20110;-74
2022/08/27 00:42:32;;;;;;;5.82;2.83;;;21.30;99.90;;;;;;5119046;28;20030;-73
2022/08/27 00:44:58;;;;;;;6.82;1.98;;;21.20;99.90;;;;;;5118785;28;20027;-73
2022/08/27 00:47:28;;;;;;;5.70;2.25;;;21.20;99.90;;;;;;5118483;28;20554;-74
2022/08/27 00:50:06;;;;;;;4.70;2.08;;;21.10;99.90;;;;;;5118497;28;20548;-73
2022/08/27 00:52:34;;;;;;;3.50;2.20;;;21.10;99.90;;;;;;5118708;28;20032;-73
2022/08/27 00:55:11;;;;;;;5.57;2.25;;;21.00;99.90;;;;;;5108867;27;20013;-73
2022/08/27 00:57:41;;;;;;;5.90;2.70;;;21.00;99.90;;;;;;5120136;28;20023;-74
2022/08/27 01:00:12;;;;;;;2.80;1.83;;;21.00;99.90;;;;;;5118019;28;20019;-73
2022/08/27 01:02:37;;;;;;;4.72;2.22;;;21.00;99.90;;;;;;5119987;27;20032;-74
2022/08/27 01:05:10;;;;;;;5.53;2.05;;;21.00;99.90;;;;;;5118554;28;20026;-73
2022/08/27 01:07:39;;;;;;;5.25;2.30;;;20.90;99.90;;;;;;5118297;28;20023;-73
2022/08/27 01:10:13;;;;;;;7.53;2.20;;;20.90;99.90;;;;;;5117484;28;20027;-73
2022/08/27 01:12:42;;;;;;;4.55;2.05;;;20.80;99.90;;;;;;5126379;27;20106;-73
2022/08/27 01:15:12;;;;;;;6.07;2.20;;;20.80;99.90;;;;;;5118618;28;20098;-73
2022/08/27 01:17:41;;;;;;;2.78;2.25;;;20.80;99.90;;;;;;5118084;28;20031;-74
2022/08/27 01:20:18;;;;;;;3.97;2.22;;;20.80;99.90;;;;;;5117647;28;20080;-74
2022/08/27 01:22:50;;;;;;;3.70;2.20;;;20.70;99.90;;;;;;5117250;28;20051;-74
2022/08/27 01:25:17;;;;;;;4.43;2.30;;;20.70;99.90;;;;;;5118889;28;20026;-73
2022/08/27 01:27:45;;;;;;;5.78;2.17;;;20.70;99.90;;;;;;5119400;28;20047;-74
2022/08/27 01:30:15;;;;;;;5.38;3.20;;;20.70;99.90;;;;;;5117789;28;20470;-74
2022/08/27 01:32:43;;;;;;;5.78;2.33;;;20.70;99.90;;;;;;5112806;28;20038;-73
2022/08/27 01:35:12;;;;;;;8.55;2.42;;;20.70;99.90;;;;;;5117991;28;20020;-74
2022/08/27 01:37:40;;;;;;;1.85;1.58;;;20.60;99.90;;;;;;5119199;28;20059;-73
2022/08/27 01:40:07;;;;;;;6.50;2.72;;;20.70;99.90;;;;;;5111141;28;20394;-73
2022/08/27 01:42:42;;;;;;;6.03;1.98;;;20.70;99.90;;;;;;5117761;28;20038;-73
2022/08/27 01:45:29;;;;;;;8.95;2.50;;;20.60;99.90;;;;;;5118657;28;20030;-73
2022/08/27 01:47:56;;;;;;;3.15;1.77;;;20.60;99.90;;;;;;5114879;28;20024;-73
2022/08/27 01:50:26;;;;;;;3.83;2.20;;;20.60;99.90;;;;;;5117526;28;20043;-73
2022/08/27 01:52:53;;;;;;;3.80;1.98;;;20.60;99.90;;;;;;5116564;28;20026;-73
2022/08/27 01:55:23;;;;;;;7.30;2.60;;;20.60;99.90;;;;;;5108564;28;20026;-74
2022/08/27 01:57:48;;;;;;;4.35;2.10;;;20.50;99.90;;;;;;5112914;28;20101;-74
2022/08/27 02:00:24;;;;;;;7.63;2.35;;;20.50;99.90;;;;;;5116823;28;20019;-73
2022/08/27 02:02:50;;;;;;;5.40;2.13;;;20.50;99.90;;;;;;5118706;28;20046;-73
2022/08/27 02:05:17;;;;;;;5.20;1.90;;;20.50;99.90;;;;;;5111647;28;20020;-73
2022/08/27 02:07:46;;;;;;;6.75;2.00;;;20.40;99.90;;;;;;5117478;28;20024;-74
2022/08/27 02:10:17;;;;;;;8.90;2.47;;;20.40;99.90;;;;;;5116585;28;20113;-74
2022/08/27 02:12:44;;;;;;;4.43;2.00;;;20.30;99.90;;;;;;5117004;28;20028;-73
2022/08/27 02:15:10;;;;;;;4.40;3.33;;;20.30;99.90;;;;;;5117465;28;20019;-72
2022/08/27 02:17:36;;;;;;;3.75;2.08;;;20.30;99.90;;;;;;5116409;28;20076;-72
2022/08/27 02:20:04;;;;;;;5.22;2.40;;;20.20;99.90;;;;;;5116931;28;20016;-73
2022/08/27 02:22:30;;;;;;;3.38;2.28;;;20.20;99.90;;;;;;5118207;28;20031;-72
2022/08/27 02:24:55;;;;;;;4.25;2.30;;;20.20;99.90;;;;;;5117645;28;20084;-72
2022/08/27 02:27:21;;;;;;;4.93;2.40;;;20.20;99.90;;;;;;5118035;28;20134;-73
2022/08/27 02:29:49;;;;;;;6.43;2.70;;;20.10;99.90;;;;;;5116956;28;20020;-72
2022/08/27 02:32:15;;;;;;;4.57;2.28;;;20.10;99.90;;;;;;5117775;28;20018;-72
2022/08/27 02:34:41;;;;;;;3.17;2.08;;;20.10;99.90;;;;;;5117661;28;20092;-73
2022/08/27 02:37:09;;;;;;;2.97;2.40;;;20.10;99.90;;;;;;5117899;28;20028;-73
2022/08/27 02:39:41;;;;;;;9.57;2.70;;;20.00;99.90;;;;;;5117843;28;20051;-72
2022/08/27 02:42:07;;;;;;;2.20;1.90;;;20.00;99.90;;;;;;5097872;28;20527;-72
2022/08/27 02:44:34;;;;;;;3.30;1.88;;;20.00;99.90;;;;;;5118131;28;20621;-73
2022/08/27 02:47:04;;;;;;;7.70;2.20;;;20.00;99.90;;;;;;5116478;28;20057;-72
2022/08/27 02:49:30;;;;;;;3.27;2.33;;;19.90;99.90;;;;;;5115030;28;20019;-73
2022/08/27 02:51:57;;;;;;;10.75;2.47;;;19.90;99.90;;;;;;5116493;28;20115;-73
2022/08/27 02:54:24;;;;;;;5.55;2.20;;;19.90;99.90;;;;;;5107228;28;20023;-72
2022/08/27 02:56:52;;;;;;;4.65;2.30;;;19.90;99.90;;;;;;5111676;28;20042;-73
2022/08/27 02:59:19;;;;;;;7.07;2.35;;;19.80;99.90;;;;;;5117607;28;20399;-73
2022/08/27 03:01:52;;;;;;;2.90;2.35;;;19.80;99.90;;;;;;5115166;28;20051;-73
2022/08/27 03:04:19;;;;;;;6.97;2.47;;;19.80;99.90;;;;;;5110157;28;20043;-73
2022/08/27 03:06:46;;;;;;;9.98;2.65;;;19.80;99.90;;;;;;5114853;28;20023;-73
2022/08/27 03:09:12;;;;;;;7.75;2.55;;;19.80;99.90;;;;;;5117225;28;20385;-72
2022/08/27 03:11:38;;;;;;;6.00;3.00;;;19.70;99.90;;;;;;5117037;28;20019;-72
2022/08/27 03:14:04;;;;;;;4.22;2.80;;;19.70;99.90;;;;;;5104897;28;20053;-72
2022/08/27 03:16:36;;;;;;;6.22;2.60;;;19.70;99.90;;;;;;5117541;28;20019;-72
2022/08/27 03:19:05;;;;;;;6.32;2.53;;;19.70;99.90;;;;;;5104672;28;20051;-72
2022/08/27 03:21:31;;;;;;;5.72;2.60;;;19.60;99.90;;;;;;5117415;28;20034;-73
2022/08/27 03:23:59;;;;;;;5.85;2.25;;;19.60;99.90;;;;;;5117335;28;20051;-72
2022/08/27 03:26:26;;;;;;;3.92;2.50;;;19.60;99.90;;;;;;5110733;28;20135;-72
2022/08/27 03:28:53;;;;;;;6.57;2.35;;;19.50;99.90;;;;;;5118385;28;20028;-72
2022/08/27 03:31:25;;;;;;;6.57;2.35;;;19.50;99.90;;;;;;5115702;28;20399;-73
2022/08/27 03:33:59;;;;;;;5.45;2.58;;;19.50;99.90;;;;;;5120268;28;20142;-72
2022/08/27 03:36:27;;;;;;;4.13;2.67;;;19.50;99.90;;;;;;5114172;28;20365;-73
2022/08/27 03:38:56;;;;;;;7.75;2.40;;;19.50;99.90;;;;;;5121245;28;20025;-73
2022/08/27 03:41:23;;;;;;;5.47;2.83;;;19.40;99.90;;;;;;5111648;28;20040;-73
2022/08/27 03:43:51;;;;;;;6.40;2.75;;;19.30;99.90;;;;;;5120229;28;20085;-73
2022/08/27 03:46:19;;;;;;;5.03;2.42;;;19.30;99.90;;;;;;5121071;28;20020;-72
2022/08/27 03:48:46;;;;;;;10.60;2.50;;;19.30;99.90;;;;;;5119881;28;20023;-73
2022/08/27 03:51:14;;;;;;;6.35;2.92;;;19.30;99.90;;;;;;5119219;28;20492;-72
2022/08/27 03:53:42;;;;;;;4.72;2.20;;;19.30;99.90;;;;;;5119778;28;20153;-73
2022/08/27 03:56:09;;;;;;;7.35;2.58;;;19.20;99.90;;;;;;5109694;28;20031;-72
2022/08/27 03:58:35;;;;;;;5.05;2.50;;;19.20;99.90;;;;;;5114255;28;20114;-72
2022/08/27 04:01:02;;;;;;;8.63;2.83;;;19.20;99.90;;;;;;5111469;28;20034;-72
2022/08/27 04:03:29;;;;;;;4.15;2.33;;;19.10;99.90;;;;;;5113113;28;20027;-73
2022/08/27 04:05:56;;;;;;;9.57;2.55;;;19.10;99.90;;;;;;5120853;28;20030;-73
2022/08/27 04:08:23;;;;;;;4.85;2.42;;;19.10;99.90;;;;;;5118430;28;20020;-72
2022/08/27 04:10:49;;;;;;;5.78;2.85;;;19.00;99.90;;;;;;5118857;28;20043;-71
2022/08/27 04:13:16;;;;;;;10.27;2.72;;;19.00;99.90;;;;;;5113719;28;20045;-72
2022/08/27 04:15:43;;;;;;;7.88;2.90;;;19.00;99.90;;;;;;5111661;28;20043;-72
2022/08/27 04:18:11;;;;;;;6.93;2.28;;;19.00;99.90;;;;;;5119143;28;20030;-71
2022/08/27 04:20:37;;;;;;;8.05;2.45;;;19.00;99.90;;;;;;5119171;28;20070;-72
2022/08/27 04:23:04;;;;;;;5.88;2.65;;;19.00;99.90;;;;;;5119285;28;20030;-71
2022/08/27 04:25:30;;;;;;;5.85;2.58;;;18.90;99.90;;;;;;5112497;28;20047;-72
2022/08/27 04:27:57;;;;;;;7.78;2.65;;;18.90;99.90;;;;;;5112738;28;20090;-72
2022/08/27 04:30:22;;;;;;;4.88;2.92;;;18.90;99.90;;;;;;5119296;28;20031;-72
2022/08/27 04:32:49;;;;;;;10.48;3.35;;;18.90;99.90;;;;;;5119983;28;20024;-72
2022/08/27 04:35:15;;;;;;;5.53;2.65;;;18.80;99.90;;;;;;5119192;28;20045;-72
2022/08/27 04:37:41;;;;;;;4.55;2.60;;;18.80;99.90;;;;;;5120029;28;20455;-72
2022/08/27 04:40:08;;;;;;;4.00;2.65;;;18.80;99.90;;;;;;5108074;28;20062;-72
2022/08/27 04:42:34;;;;;;;7.57;3.25;;;18.70;99.90;;;;;;5117322;28;20024;-72
2022/08/27 04:44:59;;;;;;;6.00;3.05;;;18.70;99.90;;;;;;5118832;28;20030;-72
2022/08/27 04:47:25;;;;;;;5.03;3.13;;;18.70;99.90;;;;;;5120095;28;20023;-71
2022/08/27 04:49:51;;;;;;;7.40;2.67;;;18.70;99.90;;;;;;5112805;28;20020;-71
2022/08/27 04:52:17;;;;;;;4.90;2.80;;;18.60;99.90;;;;;;5113398;28;20075;-72
2022/08/27 04:54:43;;;;;;;8.30;2.50;;;18.60;99.90;;;;;;5113113;28;20114;-72
2022/08/27 04:57:09;;;;;;;6.43;3.33;;;18.60;99.90;;;;;;5118527;28;20556;-72
2022/08/27 04:59:35;;;;;;;4.72;2.92;;;18.50;99.90;;;;;;5119904;28;20023;-71
2022/08/27 05:02:03;;;;;;;8.20;3.67;;;18.50;99.90;;;;;;5119701;28;20341;-72
2022/08/27 05:04:29;;;;;;;7.35;3.55;;;18.50;99.90;;;;;;5119699;28;20024;-71
2022/08/27 05:06:56;;;;;;;11.82;4.50;;;18.50;99.90;;;;;;5112707;28;20122;-71
2022/08/27 05:09:22;;;;;;;7.78;3.35;;;18.50;99.90;;;;;;5107388;28;20444;-70
2022/08/27 05:11:48;;;;;;;5.63;4.20;;;18.50;99.90;;;;;;5113471;28;20028;-71
2022/08/27 05:14:15;;;;;;;9.63;3.45;;;18.50;99.90;;;;;;5119392;28;20069;-71
2022/08/27 05:16:41;;;;;;;12.88;4.85;;;18.40;99.90;;;;;;5118547;28;20099;-71
2022/08/27 05:19:09;;;;;;;9.35;3.50;;;18.40;99.90;;;;;;5115259;28;20030;-71
2022/08/27 05:21:38;;;;;;;6.47;3.55;;;18.40;99.90;;;;;;5119516;28;20372;-71
2022/08/27 05:24:06;;;;;;;5.90;3.70;;;18.40;99.90;;;;;;5118139;28;20028;-71
2022/08/27 05:26:34;;;;;;;8.05;3.95;;;18.40;99.90;;;;;;5101376;28;20044;-71
2022/08/27 05:29:00;;;;;;;6.55;4.68;;;18.40;99.90;;;;;;5118741;28;20032;-70
2022/08/27 05:31:27;;;;;;;6.80;4.80;;;18.40;99.90;;;;;;5114802;28;20034;-71
2022/08/27 05:33:55;;;;;;;13.68;5.45;;;18.40;99.90;;;;;;5118632;27;20071;-71
2022/08/27 05:36:28;;;;;;;9.85;5.00;;;18.50;99.90;;;;;;5118185;28;20024;-70
2022/08/27 05:38:55;;;;;;;9.63;4.93;;;18.50;99.90;;;;;;5104483;28;20047;-71
2022/08/27 05:41:24;;;;;;;6.88;4.35;;;18.50;99.90;;;;;;5115457;28;20032;-70
2022/08/27 05:43:50;;;;;;;9.80;6.03;;;18.50;99.90;;;;;;5114702;28;20032;-71
2022/08/27 05:46:19;;;;;;;8.25;4.95;;;18.60;99.90;;;;;;5117870;28;20019;-71
2022/08/27 05:48:45;;;;;;;8.20;4.50;;;18.60;99.90;;;;;;5109710;28;20023;-70
2022/08/27 05:51:16;;;;;;;6.50;4.75;;;18.70;99.90;;;;;;5118843;28;20030;-71
2022/08/27 05:53:42;;;;;;;;;;;18.70;99.90;;;;;;5118193;28;20071;-71
2022/08/27 05:56:13;;;;;;;8.15;4.60;;;18.80;99.90;;;;;;5113823;27;19904;-71
2022/08/27 06:01:25;;;;;;;12.93;4.53;;;18.80;99.90;;;;;;5068602;28;20106;-70
2022/08/27 06:03:53;;;;;;;9.73;5.15;;;18.80;99.90;;;;;;5117195;28;20019;-71
2022/08/27 06:06:21;;;;;;;7.43;5.05;;;18.90;99.90;;;;;;5119076;28;20038;-71
2022/08/27 06:08:49;;;;;;;10.48;4.93;;;18.90;99.90;;;;;;5118340;28;20016;-71
2022/08/27 06:11:15;;;;;;;12.15;4.82;;;19.00;99.90;;;;;;5118474;28;20016;-71
2022/08/27 06:13:41;;;;;;;10.30;5.70;;;19.00;99.90;;;;;;5106251;28;20024;-71
2022/08/27 06:16:09;;;;;;;8.40;4.75;;;19.10;99.90;;;;;;5118533;28;20023;-71
2022/08/27 06:18:37;;;;;;;8.18;5.75;;;19.10;99.90;;;;;;5116926;28;20023;-71
2022/08/27 06:21:04;;;;;;;7.55;5.20;;;19.20;99.90;;;;;;5118394;28;20043;-71
2022/08/27 06:23:30;;;;;;;13.52;5.80;;;19.30;99.90;;;;;;5118335;28;20107;-71
2022/08/27 06:25:57;;;;;;;11.30;5.85;;;19.30;99.90;;;;;;5117929;28;20023;-70
2022/08/27 06:28:28;;;;;;;9.15;5.90;;;19.30;99.90;;;;;;5118069;27;20070;-71
2022/08/27 06:31:03;;;;;;;;;;;19.30;99.90;;;;;;5118430;28;20020;-71
2022/08/27 06:33:29;;;;;;;6.97;5.03;;;19.40;99.90;;;;;;5118110;28;19907;-72
2022/08/27 06:36:00;;;;;;;11.73;5.72;;;19.40;99.90;;;;;;5118303;28;20380;-71
2022/08/27 06:38:27;;;;;;;;;;;19.30;99.90;;;;;;5118527;28;20016;-71
2022/08/27 06:40:54;;;;;;;9.50;5.82;;;19.30;99.90;;;;;;5116546;28;20405;-71
2022/08/27 06:43:20;;;;;;;13.25;6.60;;;19.40;99.90;;;;;;5117742;28;20108;-71
2022/08/27 06:45:46;;;;;;;10.38;5.40;;;19.40;99.90;;;;;;5116062;28;20032;-71
2022/08/27 06:48:11;;;;;;;10.38;6.70;;;19.40;99.90;;;;;;5106011;28;20038;-71
2022/08/27 06:50:39;;;;;;;11.18;5.93;;;19.50;99.90;;;;;;5111265;28;20543;-70
2022/08/27 06:53:06;;;;;;;8.70;6.45;;;19.60;99.90;;;;;;5115836;28;20085;-71
2022/08/27 06:55:32;;;;;;;12.27;5.88;;;19.60;99.90;;;;;;5104707;28;20095;-71
2022/08/27 06:57:58;;;;;;;10.70;6.78;;;19.60;99.90;;;;;;5117388;28;20107;-71
2022/08/27 07:00:24;;;;;;;8.18;6.22;;;19.70;99.90;;;;;;5116378;28;20066;-71
2022/08/27 07:02:50;;;;;;;11.00;6.78;;;19.70;99.90;;;;;;5105884;28;20484;-71
2022/08/27 07:05:17;;;;;;;13.00;5.75;;;19.70;99.90;;;;;;5116274;28;20027;-71
2022/08/27 07:07:43;;;;;;;12.65;6.50;;;19.80;99.90;;;;;;5115790;28;20396;-71
2022/08/27 07:10:09;;;;;;;13.25;5.70;;;19.90;99.90;;;;;;5116071;28;20032;-71
2022/08/27 07:12:35;;;;;;;12.15;5.93;;;20.00;99.90;;;;;;5117744;28;20023;-71
2022/08/27 07:15:01;;;;;;;12.95;6.65;;;20.00;99.90;;;;;;5117610;28;20399;-71
2022/08/27 07:17:27;;;;;;;12.35;6.25;;;20.10;99.90;;;;;;5114051;28;20011;-71
2022/08/27 07:19:53;;;;;;;6.30;5.70;;;20.30;99.90;;;;;;5117099;28;20062;-71
2022/08/27 07:22:19;;;;;;;11.32;6.57;;;20.40;99.90;;;;;;5117458;28;20034;-71
2022/08/27 07:24:44;;;;;;;22.63;7.32;;;20.50;99.90;;;;;;5105142;28;20028;-70
2022/08/27 07:27:10;;;;;;;18.75;7.30;;;20.50;99.90;;;;;;5117421;28;20047;-70
2022/08/27 07:29:36;;;;;;;8.43;5.60;;;20.50;99.90;;;;;;5117194;28;20114;-70
2022/08/27 07:32:03;;;;;;;11.23;6.10;;;20.50;99.90;;;;;;5115620;28;20024;-70
2022/08/27 07:34:29;;;;;;;12.27;5.63;;;20.60;99.90;;;;;;5117299;28;20016;-71
2022/08/27 07:36:54;;;;;;;9.98;5.97;;;20.60;99.90;;;;;;5117584;28;20026;-70
2022/08/27 07:39:20;;;;;;;10.63;5.32;;;20.70;99.90;;;;;;5115613;28;20495;-71
2022/08/27 07:44:30;;;;;;;8.27;5.45;;;20.90;99.90;;;;;;5117311;28;20030;-70
2022/08/27 07:46:57;;;;;;;9.18;5.10;;;21.00;99.90;;;;;;5115945;28;20485;-70
2022/08/27 07:49:26;;;;;;;10.25;6.03;;;21.00;99.90;;;;;;5117101;28;20396;-70
2022/08/27 07:51:52;;;;;;;7.38;5.40;;;21.00;99.90;;;;;;5111912;28;20066;-70
2022/08/27 07:54:21;;;;;;;12.68;5.00;;;20.90;99.90;;;;;;5116988;28;20027;-70
2022/08/27 07:56:47;;;;;;;10.80;5.38;;;21.00;99.90;;;;;;5115793;28;20062;-70
2022/08/27 07:59:13;;;;;;;11.75;5.22;;;21.10;99.90;;;;;;5110888;28;20020;-70
2022/08/27 08:01:41;;;;;;;12.35;5.63;;;21.30;99.90;;;;;;5116542;28;20015;-71
2022/08/27 08:04:08;;;;;;;11.07;6.53;;;21.40;99.90;;;;;;5117129;28;20047;-70
2022/08/27 08:06:37;;;;;;;13.05;6.18;;;21.30;99.90;;;;;;5115632;28;20027;-70
2022/08/27 08:09:03;;;;;;;10.32;5.40;;;21.30;99.90;;;;;;5116960;28;20020;-70
2022/08/27 08:11:29;;;;;;;10.05;4.95;;;21.30;99.90;;;;;;5115463;28;20531;-70
2022/08/27 08:13:55;;;;;;;9.05;5.45;;;21.50;99.90;;;;;;5115593;28;20081;-70
2022/08/27 08:16:23;;;;;;;6.03;4.88;;;21.50;99.90;;;;;;5118780;28;20024;-70
2022/08/27 08:18:49;;;;;;;7.45;4.85;;;21.60;99.90;;;;;;5119658;28;20011;-71
2022/08/27 08:21:15;;;;;;;9.00;4.50;;;21.70;99.90;;;;;;5117099;28;20022;-70
2022/08/27 08:23:42;;;;;;;12.82;5.57;;;21.70;99.90;;;;;;5120553;28;20535;-71
2022/08/27 08:26:09;;;;;;;15.75;5.80;;;21.90;99.90;;;;;;5113970;28;20058;-71
2022/08/27 08:28:35;;;;;;;8.02;4.80;;;21.80;99.90;;;;;;5120584;28;20027;-71
2022/08/27 08:31:02;;;;;;;10.98;5.30;;;21.90;99.90;;;;;;5111005;28;20150;-71
2022/08/27 08:33:30;;;;;;;7.97;4.47;;;22.00;99.90;;;;;;5120420;28;20395;-71
2022/08/27 08:36:05;;;;;;;8.00;4.53;;;22.10;99.90;;;;;;5119082;28;20080;-71
2022/08/27 08:38:31;;;;;;;7.75;4.72;;;22.20;99.90;;;;;;5112096;28;20033;-70
2022/08/27 08:40:58;;;;;;;10.55;5.25;;;22.20;99.90;;;;;;5119932;28;20487;-71
2022/08/27 08:43:50;;;;;;;10.55;4.53;;;22.20;99.90;;;;;;5119037;28;20019;-70
2022/08/27 08:46:39;;;;;;;7.90;4.78;;;22.30;99.90;;;;;;5120021;28;20023;-70
2022/08/27 08:49:45;;;;;;;6.72;4.00;;;22.40;99.90;;;;;;5120034;28;20024;-70
2022/08/27 08:52:13;;;;;;;9.60;4.40;;;22.70;99.90;;;;;;5120060;28;20438;-71
2022/08/27 08:54:39;;;;;;;8.43;4.55;;;22.80;99.90;;;;;;5119416;28;20484;-70
2022/08/27 08:57:55;;;;;;;6.75;4.60;;;22.70;99.90;;;;;;5109688;27;20043;-71
2022/08/27 09:00:22;;;;;;;10.50;4.28;;;22.70;99.90;;;;;;5116502;28;20511;-70
2022/08/27 09:02:53;;;;;;;6.05;3.97;;;22.70;99.90;;;;;;5119898;28;20035;-71
2022/08/27 09:05:20;;;;;;;10.18;4.72;;;22.80;99.90;;;;;;5118411;28;20518;-70
2022/08/27 09:08:12;;;;;;;10.57;3.78;;;22.80;99.90;;;;;;5119964;28;20103;-71
2022/08/27 09:10:42;;;;;;;5.97;3.67;;;22.90;99.90;;;;;;5117546;28;20093;-71
2022/08/27 09:13:19;;;;;;;9.68;4.55;;;23.00;99.90;;;;;;5119790;28;20047;-71
2022/08/27 09:15:46;;;;;;;5.38;3.60;;;23.20;99.90;;;;;;5118034;28;20028;-70
2022/08/27 09:18:14;;;;;;;8.82;3.95;;;23.40;99.90;;;;;;5119579;28;20020;-70
2022/08/27 09:20:45;;;;;;;6.18;3.78;;;23.60;99.90;;;;;;5119573;28;20483;-70
2022/08/27 09:23:17;;;;;;;5.65;3.75;;;23.60;99.90;;;;;;5115226;28;20028;-73
2022/08/27 09:25:43;;;;;;;4.93;3.47;;;23.70;99.90;;;;;;5119113;27;20023;-73
2022/08/27 09:31:06;;;;;;;10.43;3.78;;;23.70;99.90;;;;;;5111853;28;20072;-73
2022/08/27 09:33:32;;;;;;;7.50;3.35;;;23.70;99.90;;;;;;5119234;28;20020;-73
2022/08/27 09:36:02;;;;;;;6.43;3.28;;;23.90;99.90;;;;;;5119232;28;20099;-73
2022/08/27 09:38:32;;;;;;;6.72;3.53;;;24.00;99.90;;;;;;5119450;28;20019;-73
2022/08/27 09:41:15;;;;;;;7.90;3.20;;;23.90;99.90;;;;;;5118870;28;20490;-70
2022/08/27 09:43:42;;;;;;;6.40;3.47;;;24.00;99.90;;;;;;5118021;28;20265;-73
2022/08/27 09:46:24;;;;;;;6.55;3.40;;;24.00;99.90;;;;;;5117524;28;20012;-74
2022/08/27 09:48:50;;;;;;;7.10;3.53;;;24.10;99.90;;;;;;5117655;28;20028;-74
2022/08/27 09:51:20;;;;;;;6.45;3.67;;;24.10;99.90;;;;;;5116552;28;20016;-73
2022/08/27 09:53:49;;;;;;;4.28;3.42;;;24.30;99.90;;;;;;5118974;28;20031;-73
2022/08/27 09:56:24;;;;;;;7.72;3.50;;;24.50;99.90;;;;;;5108176;28;20095;-71
2022/08/27 09:58:54;;;;;;;4.97;3.40;;;24.60;99.90;;;;;;5116942;28;20453;-71
2022/08/27 10:01:25;;;;;;;5.53;3.00;;;24.70;99.90;;;;;;5118462;28;20028;-71
2022/08/27 10:04:10;;;;;;;12.05;3.25;;;24.80;99.90;;;;;;5117248;28;20027;-73
2022/08/27 10:06:37;;;;;;;12.45;3.53;;;24.80;99.90;;;;;;5116636;28;20399;-73
2022/08/27 10:09:13;;;;;;;8.20;3.42;;;24.90;99.90;;;;;;5116990;28;20030;-73
2022/08/27 10:11:48;;;;;;;9.55;3.65;;;24.80;99.90;;;;;;5118648;28;20019;-73
2022/08/27 10:14:19;;;;;;;9.45;4.53;;;24.90;99.90;;;;;;5117169;28;20039;-74
2022/08/27 10:17:24;;;;;;;5.43;3.03;;;25.10;99.90;;;;;;5116841;28;20383;-73
2022/08/27 10:20:12;;;;;;;10.65;3.20;;;25.40;99.90;;;;;;5099638;28;20126;-73
2022/08/27 10:22:40;;;;;;;6.47;3.10;;;25.80;99.90;;;;;;5117846;28;20027;-71
2022/08/27 10:25:20;;;;;;;5.85;2.75;;;25.80;99.90;;;;;;5117589;28;20054;-70
2022/08/27 10:27:59;;;;;;;4.55;2.80;;;25.90;99.90;;;;;;5118083;28;20058;-70
2022/08/27 10:30:46;;;;;;;5.63;2.85;;;25.90;99.90;;;;;;5116925;28;20088;-71
2022/08/27 10:33:18;;;;;;;6.93;3.03;;;25.90;99.90;;;;;;5118000;28;20015;-70
2022/08/27 10:36:02;;;;;;;4.75;2.60;;;25.80;99.90;;;;;;5116872;28;20020;-71
2022/08/27 10:38:43;;;;;;;4.97;2.75;;;25.90;99.90;;;;;;5104289;28;20038;-70
2022/08/27 10:41:16;;;;;;;3.30;2.35;;;26.10;99.90;;;;;;5117672;28;20107;-71
2022/08/27 10:43:51;;;;;;;6.13;2.58;;;26.10;99.90;;;;;;5114397;28;20046;-71
2022/08/27 10:46:26;;;;;;;3.63;2.45;;;26.30;99.90;;;;;;5117865;28;20062;-71
2022/08/27 10:49:14;;;;;;;6.13;2.80;;;26.50;99.90;;;;;;5117929;28;20023;-71
2022/08/27 10:51:44;;;;;;;3.10;2.35;;;26.50;99.90;;;;;;5116404;28;20023;-71
2022/08/27 10:54:41;;;;;;;9.13;3.20;;;26.60;99.90;;;;;;5110112;28;20035;-71
2022/08/27 10:57:55;;;;;;;4.43;2.30;;;26.70;99.90;;;;;;5109973;28;20053;-72
2022/08/27 11:00:23;;;;;;;5.90;2.40;;;26.60;99.90;;;;;;5083150;28;20035;-71
2022/08/27 11:02:53;;;;;;;5.13;2.83;;;26.80;99.90;;;;;;5116365;28;20028;-71
2022/08/27 11:05:35;;;;;;;5.30;2.40;;;26.90;99.90;;;;;;5117604;28;20026;-71
2022/08/27 11:08:22;;;;;;;3.72;2.60;;;27.00;99.90;;;;;;5117757;28;20391;-71
2022/08/27 11:10:55;;;;;;;6.57;2.97;;;27.20;99.90;;;;;;5117432;28;20027;-71
2022/08/27 11:13:31;;;;;;;4.32;2.40;;;27.40;99.90;;;;;;5117638;28;20041;-72
2022/08/27 11:16:01;;;;;;;4.60;2.55;;;27.50;99.90;;;;;;5106164;28;20015;-71
2022/08/27 11:18:56;;;;;;;6.50;2.13;;;27.70;99.90;;;;;;5115251;28;20466;-72
2022/08/27 11:21:42;;;;;;;3.88;1.60;;;27.60;99.90;;;;;;5109296;28;20023;-72
2022/08/27 11:24:21;;;;;;;3.10;1.73;;;27.50;99.90;;;;;;5114042;28;20067;-71
2022/08/27 11:26:54;;;;;;;3.50;2.03;;;27.50;99.90;;;;;;5117046;28;20171;-71
2022/08/27 11:29:37;;;;;;;3.70;2.17;;;27.60;99.90;;;;;;5115366;28;20057;-72
2022/08/27 11:32:22;;;;;;;5.93;2.60;;;27.50;99.90;;;;;;5114934;28;20020;-71
2022/08/27 11:34:56;;;;;;;4.65;1.92;;;27.50;99.90;;;;;;5106462;28;20065;-71
2022/08/27 11:37:59;;;;;;;3.95;2.80;;;27.60;99.90;;;;;;5107858;28;20092;-72
2022/08/27 11:40:58;;;;;;;4.22;1.77;;;27.90;99.90;;;;;;5115380;28;20024;-72
2022/08/27 11:43:28;;;;;;;3.55;1.80;;;28.00;99.20;;;;;;5117179;28;20032;-71
2022/08/27 11:45:58;;;;;;;3.03;1.67;;;28.20;99.40;;;;;;5108860;28;20121;-71
2022/08/27 11:48:28;;;;;;;;;;;28.30;98.80;;;;;;5117665;28;20023;-72
2022/08/27 11:51:05;;;;;;;3.25;1.90;;;28.10;96.30;;;;;;5109102;28;19994;-71
2022/08/27 11:53:36;;;;;;;3.60;2.00;;;27.90;97.10;;;;;;5121389;28;20016;-72
2022/08/27 11:56:40;;;;;;;3.75;1.40;;;28.00;96.10;;;;;;5120803;28;20011;-72
2022/08/27 11:59:25;;;;;;;3.15;1.80;;;27.90;92.60;;;;;;5089139;28;20122;-71
2022/08/27 12:01:53;;;;;;;2.58;1.73;;;28.00;96.20;;;;;;5120949;28;20024;-71
2022/08/27 12:04:33;;;;;;;3.97;1.92;;;27.90;95.20;;;;;;5120976;28;20099;-71
2022/08/27 12:07:16;;;;;;;;;;;28.00;95.40;;;;;;5118148;28;20032;-71
2022/08/27 12:09:59;;;;;;;4.03;2.05;;;28.00;96.30;;;;;;5110143;28;19911;-71
2022/08/27 12:12:56;;;;;;;4.47;1.73;;;28.30;97.10;;;;;;5115466;28;20026;-71
2022/08/27 12:15:50;;;;;;;3.42;1.92;;;28.30;95.90;;;;;;5114027;28;20024;-72
2022/08/27 12:18:47;;;;;;;2.40;1.63;;;28.30;94.90;;;;;;5114672;28;20016;-72
2022/08/27 12:21:31;;;;;;;6.85;2.00;;;28.40;96.60;;;;;;5120737;28;20018;-72
2022/08/27 12:24:29;;;;;;;3.17;1.85;;;28.50;95.20;;;;;;5120626;28;20081;-72
2022/08/27 12:27:11;;;;;;;5.43;1.77;;;28.60;94.80;;;;;;5117559;28;20048;-72
2022/08/27 12:29:52;;;;;;;5.05;1.80;;;28.50;94.20;;;;;;5120404;28;20035;-73
2022/08/27 12:32:32;;;;;;;3.15;1.60;;;28.40;93.80;;;;;;5120505;28;20022;-72
2022/08/27 12:35:14;;;;;;;5.82;1.85;;;28.50;93.50;;;;;;5120317;28;20011;-72
2022/08/27 12:37:53;;;;;;;4.53;1.90;;;28.70;93.30;;;;;;5120289;28;20361;-72
2022/08/27 12:40:25;;;;;;;4.68;1.90;;;28.80;93.20;;;;;;5118691;28;20034;-71
2022/08/27 12:43:03;;;;;;;5.50;1.65;;;28.80;92.20;;;;;;5120275;28;20030;-71
2022/08/27 12:45:29;;;;;;;3.85;1.85;;;28.80;92.30;;;;;;5111429;28;20388;-71
2022/08/27 12:47:56;;;;;;;2.35;1.33;;;29.00;92.40;;;;;;5120098;28;20038;-71
2022/08/27 12:50:26;;;;;;;4.75;1.70;;;29.10;91.90;;;;;;5120040;28;20077;-71
2022/08/27 12:52:55;;;;;;;3.50;1.80;;;29.30;92.70;;;;;;5120443;27;20027;-71
2022/08/27 12:55:58;;;;;;;3.70;1.92;;;29.50;92.10;;;;;;5119794;28;20015;-72
2022/08/27 12:58:27;;;;;;;3.38;1.90;;;29.50;90.10;;;;;;5120110;28;20476;-72
2022/08/27 13:01:23;;;;;;;3.90;1.80;;;29.50;88.80;;;;;;5106811;28;20052;-71
2022/08/27 13:03:54;;;;;;;2.47;1.50;;;29.40;88.60;;;;;;5118493;28;20059;-72
2022/08/27 13:06:28;;;;;;;3.67;1.83;;;29.50;91.10;;;;;;5120039;28;20088;-71
2022/08/27 13:09:00;;;;;;;2.42;1.60;;;29.60;90.00;;;;;;5119499;27;20041;-72
2022/08/27 13:11:29;;;;;;;2.55;1.42;;;29.70;90.60;;;;;;5116827;28;20043;-71
2022/08/27 13:14:25;;;;;;;5.03;1.88;;;29.70;88.30;;;;;;5119637;28;20023;-71